createdAt,value
2022-11-30T00:01:19.765Z,10.19
2022-11-30T00:03:21.793Z,10.20
2022-11-30T00:05:23.568Z,10.18
2022-11-30T00:07:25.219Z,10.19
2022-11-30T00:09:27.027Z,10.18
2022-11-30T00:11:29.847Z,10.18
2022-11-30T00:13:33.781Z,10.16
2022-11-30T00:15:39.302Z,10.18
2022-11-30T00:17:46.009Z,10.16
2022-11-30T00:19:48.011Z,10.16
2022-11-30T00:21:50.981Z,10.15
2022-11-30T00:23:52.543Z,10.16
2022-11-30T00:25:54.241Z,10.16
2022-11-30T00:27:55.816Z,10.15
2022-11-30T00:30:00.466Z,10.15
2022-11-30T00:32:02.046Z,10.15
2022-11-30T00:34:03.564Z,10.15
2022-11-30T00:36:16.544Z,10.15
2022-11-30T00:38:18.191Z,10.14
2022-11-30T00:40:19.896Z,10.14
2022-11-30T00:42:21.511Z,10.13
2022-11-30T00:44:23.143Z,10.12
2022-11-30T00:46:24.914Z,10.14
2022-11-30T00:48:26.730Z,10.11
2022-11-30T00:50:28.467Z,10.12
2022-11-30T00:52:30.486Z,10.10
2022-11-30T00:54:32.000Z,10.12
2022-11-30T00:56:33.839Z,10.10
2022-11-30T00:58:35.530Z,10.09
2022-11-30T01:00:37.317Z,10.08
2022-11-30T01:02:39.008Z,10.08
2022-11-30T01:04:40.888Z,10.07
2022-11-30T01:06:42.473Z,10.07
2022-11-30T01:08:44.266Z,10.06
2022-11-30T01:10:47.645Z,10.06
2022-11-30T01:12:49.791Z,10.07
2022-11-30T01:14:51.865Z,10.05
2022-11-30T01:16:56.205Z,10.05
2022-11-30T01:18:58.408Z,10.04
2022-11-30T01:21:00.155Z,10.03
2022-11-30T01:23:01.750Z,10.01
2022-11-30T01:25:04.114Z,10.00
2022-11-30T01:27:05.950Z,10.00
2022-11-30T01:29:07.656Z,9.99
2022-11-30T01:31:11.271Z,9.98
2022-11-30T01:33:12.961Z,9.98
2022-11-30T01:35:14.783Z,9.98
2022-11-30T01:37:16.337Z,9.98
2022-11-30T01:39:17.981Z,9.98
2022-11-30T01:41:27.570Z,9.97
2022-11-30T01:43:54.176Z,9.95
2022-11-30T01:45:55.959Z,9.95
2022-11-30T01:47:58.483Z,9.94
2022-11-30T01:50:08.590Z,9.93
2022-11-30T01:52:35.482Z,9.93
2022-11-30T01:54:43.520Z,9.92
2022-11-30T01:56:50.325Z,9.91
2022-11-30T01:58:54.075Z,9.90
2022-11-30T02:00:56.560Z,9.91
2022-11-30T02:03:04.832Z,9.87
2022-11-30T02:05:07.629Z,9.88
2022-11-30T02:07:09.969Z,9.87
2022-11-30T02:09:13.187Z,9.86
2022-11-30T02:11:15.987Z,9.86
2022-11-30T02:13:29.684Z,9.85
2022-11-30T02:15:43.657Z,9.84
2022-11-30T02:17:55.232Z,9.84
2022-11-30T02:20:02.824Z,9.84
2022-11-30T02:22:15.425Z,9.81
2022-11-30T02:24:50.817Z,9.80
2022-11-30T02:27:09.735Z,9.80
2022-11-30T02:29:27.061Z,9.79
2022-11-30T02:31:40.543Z,9.79
2022-11-30T02:33:50.503Z,9.79
2022-11-30T02:35:57.463Z,9.78
2022-11-30T02:38:01.436Z,9.78
2022-11-30T02:40:08.678Z,9.78
2022-11-30T02:42:12.918Z,9.78
2022-11-30T02:44:15.880Z,9.78
2022-11-30T02:46:31.420Z,9.76
2022-11-30T02:48:44.566Z,9.76
2022-11-30T02:50:51.446Z,9.75
2022-11-30T02:52:54.309Z,9.76
2022-11-30T02:55:04.697Z,9.76
2022-11-30T02:57:06.708Z,9.74
2022-11-30T02:59:08.566Z,9.75
2022-11-30T03:01:10.447Z,9.75
2022-11-30T03:03:12.108Z,9.75
2022-11-30T03:05:13.723Z,9.74
2022-11-30T03:07:15.412Z,9.73
2022-11-30T03:09:17.094Z,9.74
2022-11-30T03:11:20.985Z,9.74
2022-11-30T03:13:25.860Z,9.73
2022-11-30T03:15:27.778Z,9.72
2022-11-30T03:17:29.532Z,9.73
2022-11-30T03:19:31.149Z,9.73
2022-11-30T03:21:32.795Z,9.72
2022-11-30T03:23:36.093Z,9.71
2022-11-30T03:25:37.638Z,9.70
2022-11-30T03:27:39.263Z,9.71
2022-11-30T03:29:41.130Z,9.71
2022-11-30T03:31:42.995Z,9.70
2022-11-30T03:33:44.641Z,9.71
2022-11-30T03:35:46.191Z,9.70
2022-11-30T03:37:48.301Z,9.71
2022-11-30T03:39:54.946Z,9.70
2022-11-30T03:42:05.656Z,9.68
2022-11-30T03:44:07.224Z,9.68
2022-11-30T03:46:09.329Z,9.69
2022-11-30T03:48:11.040Z,9.68
2022-11-30T03:50:12.766Z,9.68
2022-11-30T03:52:14.419Z,9.68
2022-11-30T03:54:16.038Z,9.68
2022-11-30T03:56:17.859Z,9.67
2022-11-30T03:58:19.743Z,9.67
2022-11-30T04:00:21.803Z,9.67
2022-11-30T04:02:24.004Z,9.66
2022-11-30T04:04:25.692Z,9.66
2022-11-30T04:06:27.283Z,9.66
2022-11-30T04:08:30.331Z,9.66
2022-11-30T04:10:31.966Z,9.65
2022-11-30T04:12:33.698Z,9.64
2022-11-30T04:14:35.251Z,9.63
2022-11-30T04:16:36.877Z,9.63
2022-11-30T04:18:39.160Z,9.63
2022-11-30T04:20:41.157Z,9.62
2022-11-30T04:22:44.051Z,9.62
2022-11-30T04:24:47.343Z,9.61
2022-11-30T04:26:49.105Z,9.61
2022-11-30T04:28:50.776Z,9.60
2022-11-30T04:30:54.388Z,9.59
2022-11-30T04:32:56.097Z,9.59
2022-11-30T04:34:57.623Z,9.58
2022-11-30T04:37:00.570Z,9.58
2022-11-30T04:39:03.423Z,9.60
2022-11-30T04:41:08.830Z,9.58
2022-11-30T04:43:11.958Z,9.58
2022-11-30T04:45:13.724Z,9.57
2022-11-30T04:47:15.503Z,9.57
2022-11-30T04:49:17.324Z,9.56
2022-11-30T04:51:18.926Z,9.56
2022-11-30T04:53:20.540Z,9.57
2022-11-30T04:55:22.246Z,9.57
2022-11-30T04:57:24.371Z,9.56
2022-11-30T04:59:26.248Z,9.56
2022-11-30T05:01:28.273Z,9.57
2022-11-30T05:03:29.884Z,9.56
2022-11-30T05:05:31.552Z,9.57
2022-11-30T05:07:33.379Z,9.56
2022-11-30T05:09:35.285Z,9.55
2022-11-30T05:11:36.902Z,9.55
2022-11-30T05:13:38.632Z,9.55
2022-11-30T05:15:40.353Z,9.54
2022-11-30T05:17:42.584Z,9.53
2022-11-30T05:19:44.361Z,9.54
2022-11-30T05:21:46.089Z,9.53
2022-11-30T05:23:48.841Z,9.53
2022-11-30T05:25:50.452Z,9.53
2022-11-30T05:27:52.027Z,9.51
2022-11-30T05:29:53.603Z,9.51
2022-11-30T05:31:55.449Z,9.51
2022-11-30T05:33:57.148Z,9.50
2022-11-30T05:35:58.728Z,9.51
2022-11-30T05:38:00.551Z,9.49
2022-11-30T05:40:02.314Z,9.48
2022-11-30T05:42:03.947Z,9.49
2022-11-30T05:44:06.400Z,9.49
2022-11-30T05:46:09.286Z,9.48
2022-11-30T05:48:10.930Z,9.47
2022-11-30T05:50:12.750Z,9.47
2022-11-30T05:52:14.402Z,9.47
2022-11-30T05:54:16.301Z,9.47
2022-11-30T05:56:19.918Z,9.47
2022-11-30T05:58:21.465Z,9.45
2022-11-30T06:00:23.414Z,9.46
2022-11-30T06:02:28.387Z,9.45
2022-11-30T06:04:30.372Z,9.45
2022-11-30T06:06:32.577Z,9.43
2022-11-30T06:08:34.179Z,9.44
2022-11-30T06:10:36.743Z,9.43
2022-11-30T06:12:38.292Z,9.42
2022-11-30T06:14:42.912Z,9.42
2022-11-30T06:16:45.653Z,9.41
2022-11-30T06:18:47.163Z,9.40
2022-11-30T06:20:48.827Z,9.38
2022-11-30T06:22:50.495Z,9.37
2022-11-30T06:24:52.224Z,9.36
2022-11-30T06:26:53.918Z,9.35
2022-11-30T06:28:55.524Z,9.33
2022-11-30T06:31:01.382Z,9.32
2022-11-30T06:33:03.153Z,9.32
2022-11-30T06:35:05.177Z,9.31
2022-11-30T06:37:07.021Z,9.31
2022-11-30T06:39:11.456Z,9.28
2022-11-30T06:41:13.087Z,9.28
2022-11-30T06:43:14.841Z,9.27
2022-11-30T06:45:16.848Z,9.27
2022-11-30T06:47:18.658Z,9.25
2022-11-30T06:49:20.443Z,9.25
2022-11-30T06:51:21.905Z,9.24
2022-11-30T06:53:23.640Z,9.24
2022-11-30T06:55:25.344Z,9.21
2022-11-30T06:57:28.429Z,9.21
2022-11-30T06:59:30.375Z,9.20
2022-11-30T07:01:32.350Z,9.19
2022-11-30T07:03:34.130Z,9.17
2022-11-30T07:05:42.154Z,9.17
2022-11-30T07:07:44.185Z,9.16
2022-11-30T07:09:45.987Z,9.15
2022-11-30T07:11:47.655Z,9.15
2022-11-30T07:13:49.317Z,9.14
2022-11-30T07:15:51.070Z,9.14
2022-11-30T07:17:52.713Z,9.14
2022-11-30T07:19:54.295Z,9.14
2022-11-30T07:21:56.286Z,9.12
2022-11-30T07:24:16.549Z,9.12
2022-11-30T07:26:18.881Z,9.11
2022-11-30T07:28:20.461Z,9.11
2022-11-30T07:30:22.082Z,9.10
2022-11-30T07:32:23.773Z,9.08
2022-11-30T07:34:25.851Z,9.09
2022-11-30T07:36:27.963Z,9.07
2022-11-30T07:38:29.656Z,9.07
2022-11-30T07:40:31.696Z,9.06
2022-11-30T07:42:33.858Z,9.05
2022-11-30T07:44:35.339Z,9.04
2022-11-30T07:46:38.738Z,9.06
2022-11-30T07:48:40.892Z,9.06
2022-11-30T07:50:42.534Z,9.04
2022-11-30T07:52:44.213Z,9.04
2022-11-30T07:54:46.296Z,9.03
2022-11-30T07:56:48.370Z,9.03
2022-11-30T07:58:51.698Z,9.00
2022-11-30T08:00:53.467Z,9.01
2022-11-30T08:02:55.208Z,9.02
2022-11-30T08:05:02.829Z,9.02
2022-11-30T08:07:04.575Z,9.03
2022-11-30T08:09:07.170Z,9.04
2022-11-30T08:11:11.154Z,9.06
2022-11-30T08:13:12.739Z,9.06
2022-11-30T08:15:20.199Z,9.04
2022-11-30T08:17:22.314Z,9.08
2022-11-30T08:19:23.984Z,9.09
2022-11-30T08:21:28.146Z,9.09
2022-11-30T08:23:34.621Z,9.11
2022-11-30T08:25:36.292Z,9.13
2022-11-30T08:27:38.076Z,9.15
2022-11-30T08:29:39.888Z,9.15
2022-11-30T08:31:41.579Z,9.14
2022-11-30T08:33:44.085Z,9.16
2022-11-30T08:35:45.674Z,9.17
2022-11-30T08:37:47.437Z,9.17
2022-11-30T08:39:49.017Z,9.19
2022-11-30T08:41:52.160Z,9.20
2022-11-30T08:43:54.699Z,9.20
2022-11-30T08:45:57.423Z,9.21
2022-11-30T08:47:59.412Z,9.21
2022-11-30T08:50:01.561Z,9.22
2022-11-30T08:52:19.163Z,9.24
2022-11-30T08:54:21.161Z,9.25
2022-11-30T08:56:23.915Z,9.28
2022-11-30T08:58:26.420Z,9.29
2022-11-30T09:00:28.192Z,9.30
2022-11-30T09:02:29.971Z,9.31
2022-11-30T09:04:31.592Z,9.32
2022-11-30T09:06:33.380Z,9.34
2022-11-30T09:08:39.548Z,9.35
2022-11-30T09:10:42.606Z,9.36
2022-11-30T09:12:44.336Z,9.39
2022-11-30T09:14:53.905Z,9.39
2022-11-30T09:16:57.910Z,9.40
2022-11-30T09:18:59.595Z,9.40
2022-11-30T09:21:05.584Z,9.40
2022-11-30T09:23:07.236Z,9.42
2022-11-30T09:25:10.700Z,9.43
2022-11-30T09:27:12.490Z,9.44
2022-11-30T09:29:14.094Z,9.42
2022-11-30T09:31:18.230Z,9.42
2022-11-30T09:33:20.573Z,9.41
2022-11-30T09:35:22.447Z,9.43
2022-11-30T09:37:24.307Z,9.44
2022-11-30T09:39:26.061Z,9.44
2022-11-30T09:42:09.169Z,9.40
2022-11-30T09:44:16.588Z,9.39
2022-11-30T09:46:25.542Z,9.40
2022-11-30T09:49:04.422Z,9.39
2022-11-30T09:51:15.161Z,9.39
2022-11-30T09:53:41.865Z,9.38
2022-11-30T09:55:44.496Z,9.40
2022-11-30T09:57:52.505Z,9.41
2022-11-30T09:59:59.823Z,9.42
2022-11-30T10:02:17.089Z,9.41
2022-11-30T10:04:27.535Z,9.42
2022-11-30T10:06:34.305Z,9.41
2022-11-30T10:09:09.553Z,9.41
2022-11-30T10:11:14.124Z,9.41
2022-11-30T10:13:21.575Z,9.41
2022-11-30T10:15:26.368Z,9.42
2022-11-30T10:17:33.791Z,9.43
2022-11-30T10:20:10.760Z,9.42
2022-11-30T10:22:27.718Z,9.44
2022-11-30T10:24:48.488Z,9.43
2022-11-30T10:26:55.307Z,9.43
2022-11-30T10:29:04.709Z,9.42
2022-11-30T10:31:11.330Z,9.43
2022-11-30T10:33:24.149Z,9.43
2022-11-30T10:35:37.501Z,9.42
2022-11-30T10:37:40.256Z,9.41
2022-11-30T10:39:44.463Z,9.43
2022-11-30T10:41:57.476Z,9.41
2022-11-30T10:44:04.997Z,9.42
2022-11-30T10:46:11.340Z,9.43
2022-11-30T10:48:28.693Z,9.42
2022-11-30T10:50:31.714Z,9.41
2022-11-30T10:53:02.414Z,9.40
2022-11-30T10:55:14.948Z,9.41
2022-11-30T10:57:16.641Z,9.41
2022-11-30T10:59:38.973Z,9.41
2022-11-30T11:01:42.608Z,9.44
2022-11-30T11:03:44.320Z,9.44
2022-11-30T11:05:46.453Z,9.44
2022-11-30T11:07:52.212Z,9.45
2022-11-30T11:09:54.187Z,9.46
2022-11-30T11:12:06.148Z,9.47
2022-11-30T11:14:12.363Z,9.48
2022-11-30T11:16:14.275Z,9.49
2022-11-30T11:18:16.018Z,9.48
2022-11-30T11:20:37.064Z,9.48
2022-11-30T11:22:38.854Z,9.50
2022-11-30T11:24:40.753Z,9.50
2022-11-30T11:26:50.648Z,9.51
2022-11-30T11:28:54.836Z,9.50
2022-11-30T11:30:57.577Z,9.52
2022-11-30T11:33:11.588Z,9.54
2022-11-30T11:35:32.419Z,9.51
2022-11-30T11:37:38.228Z,9.52
2022-11-30T11:39:40.212Z,9.52
2022-11-30T11:41:42.004Z,9.55
2022-11-30T11:44:04.333Z,9.55
2022-11-30T11:46:13.640Z,9.55
2022-11-30T11:48:29.215Z,9.55
2022-11-30T11:51:06.025Z,9.55
2022-11-30T11:53:24.969Z,9.54
2022-11-30T11:55:27.210Z,9.55
2022-11-30T11:57:58.823Z,9.54
2022-11-30T12:00:26.742Z,9.54
2022-11-30T12:02:37.944Z,9.54
2022-11-30T12:04:46.766Z,9.53
2022-11-30T12:06:53.723Z,9.53
2022-11-30T12:09:24.304Z,9.54
2022-11-30T12:11:35.315Z,9.55
2022-11-30T12:13:42.713Z,9.54
2022-11-30T12:15:58.882Z,9.55
2022-11-30T12:18:47.845Z,9.54
2022-11-30T12:21:02.818Z,9.53
2022-11-30T12:23:13.884Z,9.56
2022-11-30T12:25:27.216Z,9.56
2022-11-30T12:27:54.774Z,9.56
2022-11-30T12:30:14.194Z,9.55
2022-11-30T12:32:23.468Z,9.55
2022-11-30T12:34:39.633Z,9.56
2022-11-30T12:36:58.478Z,9.54
2022-11-30T12:39:21.781Z,9.53
2022-11-30T12:41:58.663Z,9.54
2022-11-30T12:44:32.640Z,9.53
2022-11-30T12:47:01.114Z,9.51
2022-11-30T12:49:21.939Z,9.52
2022-11-30T12:51:32.779Z,9.52
2022-11-30T12:53:45.667Z,9.53
2022-11-30T12:56:16.380Z,9.53
2022-11-30T12:58:30.872Z,9.53
2022-11-30T13:00:51.436Z,9.54
2022-11-30T13:03:18.748Z,9.53
2022-11-30T13:05:42.674Z,9.51
2022-11-30T13:07:56.552Z,9.52
2022-11-30T13:10:02.854Z,9.51
2022-11-30T13:12:14.892Z,9.52
2022-11-30T13:14:22.486Z,9.52
2022-11-30T13:16:25.580Z,9.50
2022-11-30T13:18:28.422Z,9.51
2022-11-30T13:20:52.072Z,9.48
2022-11-30T13:23:00.863Z,9.48
2022-11-30T13:28:03.485Z,9.44
2022-11-30T13:30:19.361Z,9.43
2022-11-30T13:32:56.066Z,9.43
2022-11-30T13:34:43.846Z,9.42
2022-11-30T13:36:45.701Z,9.42
2022-11-30T13:38:48.113Z,9.40
2022-11-30T13:41:01.896Z,9.40
2022-11-30T13:43:03.991Z,9.39
2022-11-30T13:45:11.628Z,9.37
2022-11-30T13:47:34.759Z,9.37
2022-11-30T13:49:37.096Z,9.33
2022-11-30T13:51:42.321Z,9.34
2022-11-30T13:53:44.161Z,9.32
2022-11-30T13:55:49.253Z,9.31
2022-11-30T13:57:53.774Z,9.29
2022-11-30T14:00:05.045Z,9.27
2022-11-30T14:02:36.618Z,9.24
2022-11-30T14:04:46.188Z,9.22
2022-11-30T14:06:59.554Z,9.23
2022-11-30T14:09:03.805Z,9.22
2022-11-30T14:11:38.529Z,9.23
2022-11-30T14:13:40.073Z,9.21
2022-11-30T14:15:44.443Z,9.21
2022-11-30T14:17:46.701Z,9.22
2022-11-30T14:19:52.319Z,9.23
2022-11-30T14:21:54.278Z,9.22
2022-11-30T14:24:18.151Z,9.22
2022-11-30T14:26:28.925Z,9.21
2022-11-30T14:28:39.894Z,9.22
2022-11-30T14:30:43.609Z,9.22
2022-11-30T14:32:51.074Z,9.21
2022-11-30T14:35:01.067Z,9.21
2022-11-30T14:37:14.036Z,9.20
2022-11-30T14:39:27.446Z,9.20
2022-11-30T14:41:30.995Z,9.19
2022-11-30T14:43:32.942Z,9.19
2022-11-30T14:45:35.256Z,9.21
2022-11-30T14:47:37.150Z,9.19
2022-11-30T14:49:46.741Z,9.18
2022-11-30T14:52:13.841Z,9.15
2022-11-30T14:54:36.573Z,9.17
2022-11-30T14:56:47.304Z,9.16
2022-11-30T14:59:18.152Z,9.16
2022-11-30T15:01:23.941Z,9.14
2022-11-30T15:03:31.239Z,9.14
2022-11-30T15:05:35.493Z,9.13
2022-11-30T15:07:37.595Z,9.12
2022-11-30T15:09:43.954Z,9.12
2022-11-30T15:11:48.000Z,9.11
2022-11-30T15:13:53.964Z,9.11
2022-11-30T15:15:56.406Z,9.11
2022-11-30T15:18:16.325Z,9.10
2022-11-30T15:20:23.123Z,9.09
2022-11-30T15:22:25.041Z,9.07
2022-11-30T15:24:29.344Z,9.04
2022-11-30T15:26:37.607Z,9.06
2022-11-30T15:28:44.267Z,9.06
2022-11-30T15:30:49.172Z,9.05
2022-11-30T15:32:52.617Z,9.04
2022-11-30T15:34:57.720Z,9.04
2022-11-30T15:37:00.311Z,9.03
2022-11-30T15:39:04.387Z,9.02
2022-11-30T15:41:17.652Z,9.01
2022-11-30T15:43:22.803Z,9.01
2022-11-30T15:45:36.361Z,9.00
2022-11-30T15:47:38.893Z,9.00
2022-11-30T15:49:51.687Z,8.98
2022-11-30T15:52:11.530Z,8.98
2022-11-30T15:54:19.495Z,8.97
2022-11-30T15:56:26.515Z,8.95
2022-11-30T15:59:19.562Z,8.93
2022-11-30T16:01:25.146Z,8.92
2022-11-30T16:03:27.983Z,8.91
2022-11-30T16:05:35.910Z,8.91
2022-11-30T16:08:03.783Z,8.87
2022-11-30T16:10:17.011Z,8.87
2022-11-30T16:12:30.336Z,8.85
2022-11-30T16:14:32.259Z,8.85
2022-11-30T16:16:34.260Z,8.85
2022-11-30T16:18:36.024Z,8.83
2022-11-30T16:20:38.053Z,8.82
2022-11-30T16:22:42.422Z,8.82
2022-11-30T16:24:44.182Z,8.82
2022-11-30T16:26:53.098Z,8.82
2022-11-30T16:28:55.536Z,8.81
2022-11-30T16:31:00.466Z,8.80
2022-11-30T16:33:02.306Z,8.79
2022-11-30T16:35:14.660Z,8.80
2022-11-30T16:37:16.835Z,8.79
2022-11-30T16:39:18.534Z,8.78
2022-11-30T16:41:25.502Z,8.77
2022-11-30T16:43:27.302Z,8.76
2022-11-30T16:45:35.946Z,8.74
2022-11-30T16:47:38.300Z,8.73
2022-11-30T16:49:39.981Z,8.70
2022-11-30T16:51:45.330Z,8.70
2022-11-30T16:53:47.520Z,8.69
2022-11-30T16:55:49.200Z,8.69
2022-11-30T16:57:52.169Z,8.68
2022-11-30T16:59:54.289Z,8.68
2022-11-30T17:01:56.145Z,8.66
2022-11-30T17:03:58.856Z,8.64
2022-11-30T17:06:00.633Z,8.63
2022-11-30T17:08:03.012Z,8.62
2022-11-30T17:10:09.173Z,8.60
2022-11-30T17:12:11.197Z,8.58
2022-11-30T17:14:14.471Z,8.56
2022-11-30T17:16:16.197Z,8.55
2022-11-30T17:18:18.028Z,8.52
2022-11-30T17:20:19.810Z,8.53
2022-11-30T17:22:24.441Z,8.52
2022-11-30T17:24:26.229Z,8.52
2022-11-30T17:26:27.858Z,8.51
2022-11-30T17:28:29.700Z,8.49
2022-11-30T17:30:34.675Z,8.48
2022-11-30T17:32:37.003Z,8.47
2022-11-30T17:34:38.954Z,8.45
2022-11-30T17:36:40.566Z,8.44
2022-11-30T17:38:44.325Z,8.44
2022-11-30T17:40:46.322Z,8.43
2022-11-30T17:42:49.680Z,8.42
2022-11-30T17:44:51.495Z,8.41
2022-11-30T17:46:53.232Z,8.41
2022-11-30T17:48:55.944Z,8.38
2022-11-30T17:50:57.870Z,8.39
2022-11-30T17:53:00.093Z,8.39
2022-11-30T17:55:01.989Z,8.38
2022-11-30T17:57:04.526Z,8.36
2022-11-30T17:59:06.164Z,8.37
2022-11-30T18:01:23.489Z,8.35
2022-11-30T18:03:25.354Z,8.34
2022-11-30T18:05:27.176Z,8.33
2022-11-30T18:07:29.066Z,8.32
2022-11-30T18:09:30.779Z,8.32
2022-11-30T18:11:32.231Z,8.32
2022-11-30T18:13:33.933Z,8.31
2022-11-30T18:15:35.470Z,8.29
2022-11-30T18:17:37.115Z,8.31
2022-11-30T18:19:38.671Z,8.28
2022-11-30T18:21:42.237Z,8.27
2022-11-30T18:23:43.891Z,8.27
2022-11-30T18:25:45.406Z,8.26
2022-11-30T18:27:47.118Z,8.24
2022-11-30T18:29:49.120Z,8.25
2022-11-30T18:31:51.772Z,8.25
2022-11-30T18:33:55.565Z,8.25
2022-11-30T18:36:02.181Z,8.25
2022-11-30T18:38:04.015Z,8.24
2022-11-30T18:40:06.333Z,8.22
2022-11-30T18:42:08.040Z,8.24
2022-11-30T18:44:10.403Z,8.23
2022-11-30T18:46:13.372Z,8.22
2022-11-30T18:48:15.342Z,8.23
2022-11-30T18:50:17.038Z,8.23
2022-11-30T18:52:18.764Z,8.22
2022-11-30T18:54:20.547Z,8.24
2022-11-30T18:56:22.299Z,8.23
2022-11-30T18:58:29.267Z,8.22
2022-11-30T19:00:31.194Z,8.22
2022-11-30T19:02:34.398Z,8.21
2022-11-30T19:04:37.292Z,8.21
2022-11-30T19:06:41.054Z,8.20
2022-11-30T19:08:43.041Z,8.19
2022-11-30T19:10:47.963Z,8.20
2022-11-30T19:12:49.799Z,8.19
2022-11-30T19:14:51.462Z,8.18
2022-11-30T19:16:53.163Z,8.17
2022-11-30T19:18:58.591Z,8.17
2022-11-30T19:21:00.767Z,8.16
2022-11-30T19:23:02.527Z,8.17
2022-11-30T19:25:04.672Z,8.18
2022-11-30T19:27:06.724Z,8.16
2022-11-30T19:29:13.114Z,8.17
2022-11-30T19:31:17.286Z,8.18
2022-11-30T19:33:18.995Z,8.17
2022-11-30T19:35:23.005Z,8.16
2022-11-30T19:37:24.681Z,8.16
2022-11-30T19:39:26.409Z,8.15
2022-11-30T19:41:29.195Z,8.15
2022-11-30T19:43:36.758Z,8.14
2022-11-30T19:45:38.414Z,8.13
2022-11-30T19:47:40.068Z,8.14
2022-11-30T19:49:41.773Z,8.14
2022-11-30T19:51:43.358Z,8.12
2022-11-30T19:53:45.815Z,8.14
2022-11-30T19:55:47.709Z,8.14
2022-11-30T19:57:51.681Z,8.14
2022-11-30T19:59:53.836Z,8.15
2022-11-30T20:01:55.531Z,8.16
2022-11-30T20:03:58.083Z,8.17
2022-11-30T20:05:59.856Z,8.16
2022-11-30T20:08:01.518Z,8.18
2022-11-30T20:10:03.730Z,8.16
2022-11-30T20:12:05.639Z,8.15
2022-11-30T20:14:07.465Z,8.17
2022-11-30T20:16:11.977Z,8.18
2022-11-30T20:18:13.945Z,8.18
2022-11-30T20:20:15.817Z,8.18
2022-11-30T20:22:17.369Z,8.17
2022-11-30T20:24:19.211Z,8.14
2022-11-30T20:26:23.865Z,8.12
2022-11-30T20:28:25.597Z,8.11
2022-11-30T20:30:27.331Z,8.12
2022-11-30T20:32:29.128Z,8.13
2022-11-30T20:34:34.354Z,8.11
2022-11-30T20:36:37.948Z,8.11
2022-11-30T20:38:40.303Z,8.11
2022-11-30T20:40:49.120Z,8.10
2022-11-30T20:42:52.626Z,8.09
2022-11-30T20:44:55.516Z,8.07
2022-11-30T20:46:56.963Z,8.07
2022-11-30T20:48:59.980Z,8.06
2022-11-30T20:51:29.416Z,8.06
2022-11-30T20:53:30.930Z,8.05
2022-11-30T20:55:32.810Z,8.05
2022-11-30T20:57:34.434Z,8.04
2022-11-30T20:59:35.990Z,8.03
2022-11-30T21:01:41.002Z,8.02
2022-11-30T21:03:43.380Z,8.01
2022-11-30T21:05:45.644Z,8.01
2022-11-30T21:07:48.545Z,8.02
2022-11-30T21:09:50.163Z,8.01
2022-11-30T21:11:51.878Z,8.03
2022-11-30T21:13:53.739Z,8.01
2022-11-30T21:15:58.037Z,8.01
2022-11-30T21:17:59.901Z,8.02
2022-11-30T21:20:02.023Z,8.01
2022-11-30T21:22:04.450Z,8.01
2022-11-30T21:24:08.649Z,8.00
2022-11-30T21:26:22.309Z,7.98
2022-11-30T21:28:23.938Z,7.99
2022-11-30T21:30:27.505Z,8.00
2022-11-30T21:32:29.002Z,7.98
2022-11-30T21:34:30.812Z,7.98
2022-11-30T21:36:32.522Z,7.99
2022-11-30T21:38:34.907Z,7.99
2022-11-30T21:40:36.486Z,7.99
2022-11-30T21:42:38.210Z,7.99
2022-11-30T21:44:39.776Z,7.98
2022-11-30T21:46:42.625Z,7.98
2022-11-30T21:48:46.179Z,7.99
2022-11-30T21:50:47.897Z,8.00
2022-11-30T21:52:49.541Z,8.00
2022-11-30T21:54:53.515Z,8.01
2022-11-30T21:56:58.388Z,8.00
2022-11-30T21:59:00.246Z,7.99
2022-11-30T22:01:02.825Z,7.99
2022-11-30T22:03:04.565Z,8.00
2022-11-30T22:05:06.555Z,7.97
2022-11-30T22:07:15.975Z,7.97
2022-11-30T22:09:18.019Z,7.97
2022-11-30T22:11:22.394Z,7.97
2022-11-30T22:13:24.145Z,7.97
2022-11-30T22:15:25.965Z,7.96
2022-11-30T22:17:27.660Z,7.97
2022-11-30T22:19:29.244Z,7.95
2022-11-30T22:21:31.888Z,7.95
2022-11-30T22:23:35.269Z,7.96
2022-11-30T22:25:36.981Z,7.93
2022-11-30T22:27:38.442Z,7.95
2022-11-30T22:29:40.243Z,7.97
2022-11-30T22:31:44.480Z,7.96
2022-11-30T22:33:46.863Z,7.96
2022-11-30T22:35:48.545Z,7.96
2022-11-30T22:37:50.333Z,7.96
2022-11-30T22:39:52.303Z,7.96
2022-11-30T22:41:56.266Z,7.98
2022-11-30T22:43:58.813Z,7.99
2022-11-30T22:46:04.902Z,7.97
2022-11-30T22:48:06.531Z,7.97
2022-11-30T22:50:11.653Z,7.97
2022-11-30T22:52:13.317Z,7.95
2022-11-30T22:54:17.820Z,7.97
2022-11-30T22:56:25.483Z,7.98
2022-11-30T22:58:27.409Z,7.97
2022-11-30T23:00:29.456Z,7.99
2022-11-30T23:02:31.461Z,7.97
2022-11-30T23:04:33.449Z,7.97
2022-11-30T23:06:37.002Z,7.96
2022-11-30T23:08:39.120Z,7.96
2022-11-30T23:10:41.068Z,7.97
2022-11-30T23:12:58.885Z,7.98
2022-11-30T23:15:00.931Z,7.95
2022-11-30T23:17:02.577Z,7.95
2022-11-30T23:19:05.401Z,7.97
2022-11-30T23:21:10.099Z,7.95
2022-11-30T23:23:11.744Z,7.98
2022-11-30T23:25:13.177Z,7.97
2022-11-30T23:27:15.013Z,8.00
2022-11-30T23:29:17.968Z,7.99
2022-11-30T23:31:34.678Z,8.01
2022-11-30T23:33:38.999Z,7.99
2022-11-30T23:35:44.153Z,8.01
2022-11-30T23:37:45.868Z,8.01
2022-11-30T23:39:47.825Z,8.00
2022-11-30T23:41:50.231Z,8.02
2022-11-30T23:43:52.799Z,8.03
2022-11-30T23:45:54.293Z,8.01
2022-11-30T23:47:55.789Z,8.04
2022-11-30T23:49:57.496Z,8.04
2022-11-30T23:51:59.133Z,8.03
2022-11-30T23:54:00.968Z,8.03
2022-11-30T23:56:05.863Z,8.05
2022-11-30T23:58:07.541Z,8.06
